KCRW Airport Diagram

We have created a template for each of the higher traffic airports in the vZID airspace. They include KCMH, KCRW, KCVG, KDAY, KIND, KLEX and KSDF. You wil find usefull information including the airport diagram, weather, and specific airport procedures.

KCRW Weather

[Source: ADDS]
METAR
KCRW 300154Z 07004KT 10SM CLR 12/06 A3009 RMK AO2 SLP188 T01170061 =
TAF
KCRW 292323Z 3000/3024 VRB03KT P6SM SKC FM301100 13006KT P6SM BKN250 FM301700 16008KT P6SM BKN200 =
JSN Epic template designed by JoomlaShine.com